Time;durP1;ratioP1;P1;durP2;ratioP2;P2;SDS_P1;SDS_P2;PMS_P1;PMS_P2;Temp;Humidity;BMP_temperature;BMP_pressure;BME280_temperature;BME280_humidity;BME280_pressure;Samples;Min_cycle;Max_cycle;Signal;HPM_P1;HPM_P2
2023/01/01 00:00:45;;;;;;;27.05;14.90;;;16.30;96.10;;;;;;4979653;28;20023;-84
2023/01/01 00:03:13;;;;;;;21.77;10.73;;;16.30;97.20;;;;;;4997487;28;20018;-83
2023/01/01 00:05:39;;;;;;;18.33;8.68;;;16.30;97.50;;;;;;4964035;28;20085;-84
2023/01/01 00:08:05;;;;;;;29.92;14.63;;;16.30;96.30;;;;;;4980201;28;20034;-83
2023/01/01 00:10:32;;;;;;;18.98;10.43;;;16.30;96.00;;;;;;4995844;28;20022;-85
2023/01/01 00:12:59;;;;;;;27.90;16.73;;;16.30;95.70;;;;;;4964113;28;20053;-85
2023/01/01 00:15:26;;;;;;;14.43;8.50;;;16.40;96.60;;;;;;4980121;28;20058;-84
2023/01/01 00:17:52;;;;;;;17.70;8.48;;;16.40;96.60;;;;;;5012880;28;20050;-82
2023/01/01 00:20:18;;;;;;;15.18;7.82;;;16.40;96.20;;;;;;4998846;28;20041;-83
2023/01/01 00:22:44;;;;;;;61.78;39.83;;;16.40;95.90;;;;;;4998824;28;20021;-83
2023/01/01 00:25:14;;;;;;;20.33;9.23;;;16.40;95.70;;;;;;4999173;28;20029;-82
2023/01/01 00:27:41;;;;;;;14.00;5.82;;;16.40;96.60;;;;;;5016559;28;20080;-83
2023/01/01 00:30:07;;;;;;;14.15;5.20;;;16.40;96.20;;;;;;5015028;28;20041;-82
2023/01/01 00:32:33;;;;;;;17.48;4.43;;;16.40;95.80;;;;;;4982129;28;20022;-83
2023/01/01 00:34:59;;;;;;;11.63;4.45;;;16.40;95.80;;;;;;4982379;28;20022;-82
2023/01/01 00:37:26;;;;;;;12.82;4.35;;;16.40;96.00;;;;;;4998701;28;20472;-81
2023/01/01 00:39:52;;;;;;;14.98;4.13;;;16.40;95.80;;;;;;5015729;28;20033;-81
2023/01/01 00:42:18;;;;;;;11.40;4.30;;;16.40;96.10;;;;;;4982547;28;20414;-81
2023/01/01 00:44:43;;;;;;;8.52;3.50;;;16.50;95.70;;;;;;4998135;28;20377;-81
2023/01/01 00:47:09;;;;;;;11.25;3.15;;;16.40;95.90;;;;;;4982062;28;20042;-81
2023/01/01 00:49:35;;;;;;;11.27;3.35;;;16.40;96.10;;;;;;4998180;28;20025;-83
2023/01/01 00:52:00;;;;;;;14.73;3.42;;;16.40;97.10;;;;;;5014254;28;20033;-82
2023/01/01 00:54:26;;;;;;;11.55;3.33;;;16.40;96.30;;;;;;5014383;28;20034;-83
2023/01/01 00:56:52;;;;;;;12.95;3.75;;;16.30;97.40;;;;;;4980689;28;20033;-81
2023/01/01 00:59:17;;;;;;;13.13;3.75;;;16.30;97.10;;;;;;5016538;28;20038;-81
2023/01/01 01:01:43;;;;;;;12.02;3.03;;;16.30;97.20;;;;;;4997977;28;20065;-82
2023/01/01 01:04:09;;;;;;;9.75;3.00;;;16.20;97.50;;;;;;4997344;28;20030;-82
2023/01/01 01:06:35;;;;;;;11.43;2.95;;;16.20;97.40;;;;;;4997472;28;20037;-82
2023/01/01 01:09:01;;;;;;;11.95;3.22;;;16.20;97.00;;;;;;4997825;28;20037;-81
2023/01/01 01:11:26;;;;;;;10.35;2.92;;;16.20;96.90;;;;;;4982046;28;20033;-82
2023/01/01 01:13:54;;;;;;;7.07;2.33;;;16.20;97.00;;;;;;4981726;28;20120;-81
2023/01/01 01:16:26;;;;;;;10.65;2.67;;;16.20;97.20;;;;;;4981649;28;20050;-81
2023/01/01 01:18:54;;;;;;;7.55;2.53;;;16.20;96.10;;;;;;5014140;28;20026;-84
2023/01/01 01:21:22;;;;;;;9.30;2.70;;;16.20;96.20;;;;;;4981872;28;20088;-83
2023/01/01 01:23:49;;;;;;;9.50;2.47;;;16.10;95.90;;;;;;5013815;28;20026;-82
2023/01/01 01:26:18;;;;;;;9.60;2.92;;;16.20;95.50;;;;;;4981549;28;20120;-82
2023/01/01 01:28:44;;;;;;;8.50;2.85;;;16.20;95.60;;;;;;4997342;28;20117;-83
2023/01/01 01:31:10;;;;;;;10.75;2.67;;;16.20;96.00;;;;;;4981531;28;20022;-82
2023/01/01 01:33:36;;;;;;;8.82;2.67;;;16.20;95.20;;;;;;4997466;28;20030;-82
2023/01/01 01:36:03;;;;;;;8.80;2.53;;;16.20;95.80;;;;;;5013606;28;20030;-82
2023/01/01 01:38:29;;;;;;;8.80;2.38;;;16.20;95.70;;;;;;4997785;28;20030;-82
2023/01/01 01:40:54;;;;;;;10.40;2.65;;;16.10;96.50;;;;;;4981327;28;20030;-81
2023/01/01 01:43:24;;;;;;;5.78;2.22;;;16.10;95.60;;;;;;5015060;28;20030;-82
2023/01/01 01:45:54;;;;;;;6.32;2.38;;;16.10;95.60;;;;;;5013812;28;20037;-82
2023/01/01 01:48:21;;;;;;;7.05;2.20;;;16.10;96.30;;;;;;5015530;28;20134;-82
2023/01/01 01:50:51;;;;;;;10.68;2.15;;;16.10;96.30;;;;;;4981358;28;20022;-82
2023/01/01 01:53:23;;;;;;;8.68;1.95;;;16.10;95.80;;;;;;5013978;28;20038;-81
2023/01/01 01:56:12;;;;;;;6.90;2.10;;;16.10;95.90;;;;;;5014899;28;20030;-81
2023/01/01 01:58:38;;;;;;;9.88;2.72;;;16.10;96.40;;;;;;4997439;28;20036;-82
2023/01/01 02:01:04;;;;;;;10.88;2.05;;;16.10;96.00;;;;;;4983517;28;20116;-82
2023/01/01 02:03:56;;;;;;;6.32;2.58;;;16.00;95.50;;;;;;4997091;28;20018;-82
2023/01/01 02:06:23;;;;;;;7.72;2.55;;;16.00;95.40;;;;;;5014063;28;20041;-82
2023/01/01 02:08:49;;;;;;;11.88;2.30;;;16.10;95.20;;;;;;4999584;28;20093;-81
2023/01/01 02:11:15;;;;;;;7.40;2.40;;;16.00;94.80;;;;;;5018633;28;20084;-83
2023/01/01 02:13:41;;;;;;;10.57;2.40;;;16.10;94.90;;;;;;5003946;28;20022;-83
2023/01/01 02:16:11;;;;;;;9.13;2.60;;;16.10;94.80;;;;;;5016129;28;20113;-82
2023/01/01 02:18:55;;;;;;;9.98;2.20;;;16.10;95.30;;;;;;4997372;28;20027;-81
2023/01/01 02:21:29;;;;;;;10.15;2.35;;;16.10;95.10;;;;;;4998629;28;20062;-82
2023/01/01 02:24:10;;;;;;;8.20;2.35;;;16.10;95.40;;;;;;4998813;28;20109;-82
2023/01/01 02:27:05;;;;;;;12.20;3.15;;;16.10;95.40;;;;;;4978905;28;20130;-82
2023/01/01 02:29:57;;;;;;;11.30;2.40;;;16.10;94.90;;;;;;4977719;28;20360;-82
2023/01/01 02:32:39;;;;;;;5.57;1.90;;;16.10;94.80;;;;;;4977837;28;20073;-82
2023/01/01 02:35:37;;;;;;;8.88;2.10;;;16.10;94.70;;;;;;4977149;28;20461;-82
2023/01/01 02:38:22;;;;;;;9.07;2.05;;;16.00;94.80;;;;;;4977198;28;20113;-81
2023/01/01 02:40:52;;;;;;;7.00;1.50;;;16.00;94.40;;;;;;4977181;28;20022;-86
2023/01/01 02:43:17;;;;;;;6.25;1.67;;;16.00;94.80;;;;;;4977495;28;20019;-82
2023/01/01 02:45:47;;;;;;;8.07;2.10;;;16.00;95.30;;;;;;4961029;28;20035;-82
2023/01/01 02:48:38;;;;;;;8.82;1.92;;;16.00;94.60;;;;;;4976680;28;20029;-82
2023/01/01 02:51:16;;;;;;;11.43;2.08;;;16.00;94.90;;;;;;4976920;28;20045;-82
2023/01/01 02:54:17;;;;;;;6.78;2.10;;;16.00;95.10;;;;;;4976789;28;20015;-82
2023/01/01 02:56:55;;;;;;;;;;;16.00;95.30;;;;;;4934193;29;20563;-82
2023/01/01 03:02:30;;;;;;;7.00;2.08;;;15.90;94.30;;;;;;4993891;28;20033;-82
2023/01/01 03:05:05;;;;;;;8.40;2.03;;;16.00;93.80;;;;;;4976752;28;20423;-82
2023/01/01 03:07:52;;;;;;;7.53;1.92;;;15.90;94.30;;;;;;4977152;28;20402;-82
2023/01/01 03:10:36;;;;;;;10.65;2.00;;;16.00;94.70;;;;;;4976749;28;20475;-82
2023/01/01 03:13:31;;;;;;;7.72;2.38;;;16.00;94.70;;;;;;4994007;28;20033;-82
2023/01/01 03:16:11;;;;;;;9.95;3.03;;;16.00;94.10;;;;;;4996076;28;20085;-82
2023/01/01 03:19:10;;;;;;;8.80;2.03;;;15.90;93.50;;;;;;4997358;28;20466;-82
2023/01/01 03:22:02;;;;;;;8.25;2.35;;;15.90;94.10;;;;;;4979305;28;20023;-81
2023/01/01 03:25:00;;;;;;;10.82;2.40;;;15.90;94.10;;;;;;4997068;28;20030;-83
2023/01/01 03:27:49;;;;;;;8.27;1.65;;;15.90;93.80;;;;;;4996203;28;20482;-83
2023/01/01 03:30:18;;;;;;;6.03;2.00;;;15.90;93.50;;;;;;4997315;28;20033;-83
2023/01/01 03:32:59;;;;;;;6.68;1.80;;;15.90;94.70;;;;;;4979399;28;20502;-83
2023/01/01 03:35:27;;;;;;;;;;;15.80;93.80;;;;;;4979384;28;20030;-83
2023/01/01 03:37:57;;;;;;;7.93;2.17;;;15.80;94.10;;;;;;4997153;28;19996;-82
2023/01/01 03:40:24;;;;;;;9.07;2.20;;;15.80;93.90;;;;;;4997948;28;20054;-82
2023/01/01 03:42:58;;;;;;;20.23;2.28;;;15.70;94.00;;;;;;4964189;28;20297;-82
2023/01/01 03:45:28;;;;;;;9.13;1.90;;;15.70;94.80;;;;;;4979969;28;20023;-81
2023/01/01 03:47:55;;;;;;;12.25;2.22;;;15.70;94.50;;;;;;4998807;28;20085;-81
2023/01/01 03:50:34;;;;;;;5.85;1.83;;;15.70;94.70;;;;;;4979722;28;20360;-82
2023/01/01 03:53:17;;;;;;;5.70;2.00;;;15.70;94.40;;;;;;4980009;28;20018;-82
2023/01/01 03:55:52;;;;;;;8.88;2.00;;;15.70;94.60;;;;;;4997277;28;20486;-82
2023/01/01 03:58:40;;;;;;;9.80;1.63;;;15.60;94.80;;;;;;4979773;28;20383;-82
2023/01/01 04:01:12;;;;;;;5.88;1.88;;;15.60;94.70;;;;;;4979862;28;20155;-82
2023/01/01 04:03:40;;;;;;;7.68;1.85;;;15.60;95.10;;;;;;4979888;28;20038;-82
2023/01/01 04:06:06;;;;;;;3.90;1.38;;;15.60;95.10;;;;;;4963380;28;20051;-82
2023/01/01 04:08:34;;;;;;;4.80;1.55;;;15.60;94.70;;;;;;4979681;28;20479;-82
2023/01/01 04:12:00;;;;;;;11.00;1.70;;;15.60;94.70;;;;;;4963200;28;20121;-83
2023/01/01 04:13:49;;;;;;;4.82;1.55;;;15.60;95.20;;;;;;4996376;28;20069;-82
2023/01/01 04:16:14;;;;;;;6.20;2.03;;;15.60;95.60;;;;;;4965173;28;20070;-82
2023/01/01 04:18:40;;;;;;;6.63;1.80;;;15.60;95.00;;;;;;4979447;28;20172;-82
2023/01/01 04:21:06;;;;;;;11.55;1.90;;;15.60;95.20;;;;;;4963109;28;20071;-82
2023/01/01 04:23:31;;;;;;;4.72;1.40;;;15.50;94.80;;;;;;4963565;28;20029;-84
2023/01/01 04:25:57;;;;;;;7.75;1.88;;;15.50;95.40;;;;;;4996262;28;20065;-82
2023/01/01 04:28:22;;;;;;;6.63;1.80;;;15.60;95.20;;;;;;4962968;28;20030;-82
2023/01/01 04:30:48;;;;;;;5.75;1.65;;;15.60;95.10;;;;;;4979495;28;20073;-82
2023/01/01 04:33:14;;;;;;;6.40;1.92;;;15.60;95.50;;;;;;4962962;28;20031;-82
2023/01/01 04:35:39;;;;;;;9.85;1.85;;;15.60;95.40;;;;;;4963061;28;20109;-82
2023/01/01 04:38:05;;;;;;;6.88;1.60;;;15.60;95.20;;;;;;4979172;28;20060;-82
2023/01/01 04:40:30;;;;;;;8.82;2.15;;;15.60;95.10;;;;;;4979286;28;20073;-83
2023/01/01 04:42:56;;;;;;;7.32;1.58;;;15.60;95.10;;;;;;4963129;28;20045;-82
2023/01/01 04:45:22;;;;;;;7.85;2.00;;;15.60;95.70;;;;;;4962854;28;20081;-83
2023/01/01 04:47:47;;;;;;;10.05;2.28;;;15.60;95.80;;;;;;4974016;28;20042;-81
2023/01/01 04:50:13;;;;;;;7.60;2.20;;;15.60;95.60;;;;;;5002324;28;20058;-83
2023/01/01 04:52:39;;;;;;;8.43;2.10;;;15.60;96.40;;;;;;4963438;28;20038;-82
2023/01/01 04:55:05;;;;;;;10.82;2.45;;;15.60;95.90;;;;;;4963134;28;20038;-83
2023/01/01 04:57:30;;;;;;;8.13;1.90;;;15.60;96.00;;;;;;4962993;28;20105;-82
2023/01/01 04:59:56;;;;;;;4.82;1.50;;;15.50;96.00;;;;;;4962971;28;20042;-82
2023/01/01 05:02:22;;;;;;;7.57;1.73;;;15.60;96.00;;;;;;4978359;28;20132;-84
2023/01/01 05:04:47;;;;;;;6.10;1.80;;;15.60;95.60;;;;;;4962200;28;20030;-82
2023/01/01 05:07:13;;;;;;;5.30;1.50;;;15.60;96.20;;;;;;4962294;28;20097;-82
2023/01/01 05:09:39;;;;;;;7.07;2.10;;;15.60;96.70;;;;;;4978744;28;20026;-82
2023/01/01 05:12:05;;;;;;;10.00;1.83;;;15.60;95.80;;;;;;4962284;28;20352;-82
2023/01/01 05:14:30;;;;;;;9.43;2.40;;;15.60;96.60;;;;;;4962476;28;20023;-82
2023/01/01 05:16:56;;;;;;;7.18;1.70;;;15.60;96.60;;;;;;4962187;28;20406;-82
2023/01/01 05:19:22;;;;;;;8.05;1.65;;;15.60;96.60;;;;;;4962148;28;20026;-83
2023/01/01 05:21:47;;;;;;;6.25;1.98;;;15.60;96.80;;;;;;4962241;28;20279;-83
2023/01/01 05:24:13;;;;;;;3.33;1.25;;;15.60;97.20;;;;;;4962160;28;20026;-83
2023/01/01 05:26:42;;;;;;;4.95;1.38;;;15.60;96.80;;;;;;4978170;28;20153;-84
2023/01/01 05:29:08;;;;;;;6.80;2.22;;;15.60;96.80;;;;;;4978237;28;20538;-88
2023/01/01 05:31:35;;;;;;;9.07;2.17;;;15.60;96.90;;;;;;4962326;28;20125;-83
2023/01/01 05:34:01;;;;;;;8.52;1.90;;;15.60;97.50;;;;;;4978163;28;20022;-83
2023/01/01 05:36:34;;;;;;;9.05;1.90;;;15.60;97.20;;;;;;4977536;28;20031;-84
2023/01/01 05:39:00;;;;;;;9.38;2.75;;;15.50;97.00;;;;;;4995255;28;20077;-83
2023/01/01 05:41:26;;;;;;;8.45;2.28;;;15.50;97.80;;;;;;4978250;28;20026;-83
2023/01/01 05:43:52;;;;;;;6.63;1.70;;;15.50;97.60;;;;;;4962602;28;20459;-84
2023/01/01 05:46:20;;;;;;;6.28;1.58;;;15.50;97.30;;;;;;4978313;28;20061;-84
2023/01/01 05:48:47;;;;;;;8.30;1.88;;;15.40;96.90;;;;;;4986785;28;20467;-84
2023/01/01 05:51:21;;;;;;;4.43;1.77;;;15.40;97.60;;;;;;5001047;28;20037;-89
2023/01/01 05:53:47;;;;;;;3.38;1.20;;;15.40;97.70;;;;;;4999904;28;20133;-83
2023/01/01 05:56:14;;;;;;;6.90;1.30;;;15.40;97.50;;;;;;5018668;28;20058;-84
2023/01/01 05:58:41;;;;;;;5.78;1.35;;;15.40;97.40;;;;;;5000285;28;20057;-82
2023/01/01 06:01:12;;;;;;;9.07;1.48;;;15.30;97.40;;;;;;4985513;28;20058;-82
2023/01/01 06:03:38;;;;;;;4.07;1.27;;;15.30;98.30;;;;;;4985140;28;20022;-82
2023/01/01 06:06:10;;;;;;;7.57;1.65;;;15.30;98.50;;;;;;4981654;28;20034;-83
2023/01/01 06:08:36;;;;;;;8.13;1.90;;;15.30;98.80;;;;;;4987361;28;20022;-82
2023/01/01 06:11:05;;;;;;;8.02;2.53;;;15.30;99.30;;;;;;4978990;28;20029;-81
2023/01/01 06:13:31;;;;;;;8.50;1.58;;;15.20;98.10;;;;;;4977702;28;20073;-82
2023/01/01 06:15:59;;;;;;;5.05;1.20;;;15.20;97.80;;;;;;4962335;28;20034;-82
2023/01/01 06:18:27;;;;;;;5.72;1.88;;;15.20;96.90;;;;;;4961225;28;20153;-82
2023/01/01 06:20:53;;;;;;;7.18;1.67;;;15.20;97.10;;;;;;4978024;28;20037;-82
2023/01/01 06:23:19;;;;;;;6.43;1.88;;;15.20;97.00;;;;;;4961415;28;20454;-83
2023/01/01 06:25:45;;;;;;;6.43;1.27;;;15.10;97.30;;;;;;4977801;28;20043;-83
2023/01/01 06:28:10;;;;;;;4.32;1.30;;;15.10;97.10;;;;;;4977506;28;20030;-82
2023/01/01 06:30:37;;;;;;;5.80;1.52;;;15.10;97.50;;;;;;4961402;28;20467;-83
2023/01/01 06:33:03;;;;;;;5.22;1.95;;;15.00;97.60;;;;;;4977210;28;20033;-83
2023/01/01 06:35:29;;;;;;;6.95;1.48;;;15.00;97.90;;;;;;4977598;28;20499;-83
2023/01/01 06:37:54;;;;;;;3.67;1.38;;;15.00;97.80;;;;;;4961147;28;20038;-82
2023/01/01 06:40:20;;;;;;;7.78;1.40;;;14.90;98.20;;;;;;4977131;28;20447;-84
2023/01/01 06:42:46;;;;;;;5.68;1.30;;;14.90;98.80;;;;;;4978011;28;20033;-83
2023/01/01 06:45:12;;;;;;;5.47;1.55;;;14.90;98.60;;;;;;4961344;28;20030;-83
2023/01/01 06:47:38;;;;;;;5.45;1.90;;;14.90;99.20;;;;;;4976875;28;20039;-82
2023/01/01 06:50:04;;;;;;;4.80;1.15;;;14.80;98.70;;;;;;4977069;28;20035;-82
2023/01/01 06:52:30;;;;;;;5.15;1.30;;;14.80;98.30;;;;;;4976536;28;20101;-82
2023/01/01 06:54:56;;;;;;;5.38;1.52;;;14.80;98.20;;;;;;4994361;28;20053;-83
2023/01/01 06:57:23;;;;;;;5.15;1.38;;;14.70;97.00;;;;;;4976819;28;20405;-83
2023/01/01 06:59:49;;;;;;;6.15;1.42;;;14.70;97.10;;;;;;4976856;28;20383;-83
2023/01/01 07:02:14;;;;;;;4.03;1.02;;;14.70;96.30;;;;;;4960734;28;20026;-83
2023/01/01 07:04:40;;;;;;;3.70;1.40;;;14.60;95.30;;;;;;4976649;28;20041;-82
2023/01/01 07:07:06;;;;;;;5.65;0.90;;;14.50;94.90;;;;;;4960900;28;20092;-83
2023/01/01 07:09:31;;;;;;;2.72;0.68;;;14.50;96.10;;;;;;4993731;28;20102;-82
2023/01/01 07:11:57;;;;;;;4.05;1.00;;;14.50;96.60;;;;;;4976990;28;20026;-83
2023/01/01 07:14:23;;;;;;;3.95;0.73;;;14.50;96.80;;;;;;4960662;28;20038;-82
2023/01/01 07:16:48;;;;;;;3.40;0.77;;;14.40;97.60;;;;;;4976486;28;20054;-82
2023/01/01 07:19:14;;;;;;;5.75;0.98;;;14.40;97.90;;;;;;4961492;28;20037;-83
2023/01/01 07:21:43;;;;;;;2.58;0.70;;;14.30;98.20;;;;;;4975355;28;20840;-82
2023/01/01 07:24:11;;;;;;;4.85;1.05;;;14.30;98.80;;;;;;4977440;28;20356;-82
2023/01/01 07:26:37;;;;;;;6.30;1.63;;;14.10;98.80;;;;;;4993994;28;20030;-83
2023/01/01 07:29:03;;;;;;;3.75;0.90;;;14.10;99.30;;;;;;4960483;28;20391;-83
2023/01/01 07:31:28;;;;;;;2.60;0.90;;;14.10;99.10;;;;;;4976227;28;20121;-83
2023/01/01 07:33:54;;;;;;;3.08;0.73;;;14.10;99.60;;;;;;4993674;28;20472;-83
2023/01/01 07:36:19;;;;;;;3.53;0.73;;;14.00;99.40;;;;;;4960344;28;20031;-83
2023/01/01 07:38:45;;;;;;;5.15;0.98;;;13.90;99.10;;;;;;4960366;28;20081;-82
2023/01/01 07:41:11;;;;;;;4.05;0.80;;;13.90;99.90;;;;;;4976570;28;20036;-83
2023/01/01 07:43:36;;;;;;;6.32;1.00;;;13.80;99.90;;;;;;4960449;28;20125;-83
2023/01/01 07:46:03;;;;;;;5.60;0.98;;;13.70;99.90;;;;;;4976524;28;20038;-83
2023/01/01 07:48:29;;;;;;;6.25;0.88;;;13.70;99.90;;;;;;4976427;28;20037;-83
2023/01/01 07:50:55;;;;;;;4.82;1.52;;;13.60;99.90;;;;;;4993815;28;20475;-83
2023/01/01 07:53:20;;;;;;;13.13;2.28;;;13.50;99.90;;;;;;4960349;28;20031;-83
2023/01/01 07:55:46;;;;;;;5.43;0.73;;;13.40;99.90;;;;;;4976209;28;20018;-84
2023/01/01 07:58:12;;;;;;;7.00;1.27;;;13.30;99.90;;;;;;4960460;28;20030;-83
2023/01/01 08:00:38;;;;;;;3.53;0.95;;;13.30;99.90;;;;;;4977640;28;20493;-83
2023/01/01 08:03:04;;;;;;;5.43;1.00;;;13.20;99.90;;;;;;4963853;28;20109;-83
2023/01/01 08:05:30;;;;;;;4.43;0.95;;;13.20;99.90;;;;;;4963610;28;20027;-83
2023/01/01 08:07:56;;;;;;;4.50;0.95;;;13.10;99.90;;;;;;4964071;28;20033;-82
2023/01/01 08:10:21;;;;;;;6.32;1.33;;;13.10;99.90;;;;;;4979582;28;20481;-83
2023/01/01 08:12:47;;;;;;;3.80;1.27;;;13.10;99.90;;;;;;4963395;28;20026;-82
2023/01/01 08:15:14;;;;;;;5.75;1.27;;;13.10;99.90;;;;;;4979922;28;20382;-82
2023/01/01 08:17:40;;;;;;;5.57;0.95;;;13.10;99.90;;;;;;4996870;28;20081;-82
2023/01/01 08:20:07;;;;;;;4.22;1.33;;;13.10;99.90;;;;;;4963472;28;20058;-83
2023/01/01 08:22:32;;;;;;;3.75;1.00;;;13.10;99.90;;;;;;4962941;28;20046;-83
2023/01/01 08:24:58;;;;;;;6.15;1.60;;;13.10;99.90;;;;;;4963273;28;20035;-82
2023/01/01 08:27:24;;;;;;;5.32;0.95;;;13.10;99.90;;;;;;4979592;28;20030;-82
2023/01/01 08:29:50;;;;;;;5.72;0.98;;;13.00;99.90;;;;;;4979232;28;20022;-82
2023/01/01 08:32:15;;;;;;;3.95;1.20;;;13.10;99.90;;;;;;4979208;28;20031;-82
2023/01/01 08:34:41;;;;;;;6.80;1.33;;;13.10;99.90;;;;;;4962966;28;20030;-82
2023/01/01 08:37:12;;;;;;;5.53;1.30;;;13.10;99.90;;;;;;4963176;28;20034;-82
2023/01/01 08:39:37;;;;;;;5.55;1.10;;;13.10;99.90;;;;;;4979310;28;20352;-83
2023/01/01 08:42:03;;;;;;;7.07;1.10;;;13.10;99.90;;;;;;4979219;28;20072;-83
2023/01/01 08:44:29;;;;;;;5.13;1.20;;;13.20;99.90;;;;;;4978821;28;20072;-82
2023/01/01 08:46:54;;;;;;;6.10;1.58;;;13.20;99.90;;;;;;4962655;28;20448;-82
2023/01/01 08:49:20;;;;;;;6.00;1.48;;;13.20;99.90;;;;;;4962966;28;20382;-82
2023/01/01 08:51:45;;;;;;;6.30;1.08;;;13.20;99.90;;;;;;4962777;28;20125;-82
2023/01/01 08:54:11;;;;;;;5.90;1.00;;;13.10;99.90;;;;;;4962804;28;20101;-82
2023/01/01 08:56:37;;;;;;;5.90;1.60;;;13.20;99.90;;;;;;4962849;28;20463;-82
2023/01/01 08:59:03;;;;;;;5.28;1.25;;;13.10;99.90;;;;;;4962801;28;20121;-82
2023/01/01 09:01:28;;;;;;;8.40;1.98;;;13.10;99.90;;;;;;4962943;28;20030;-81
2023/01/01 09:03:54;;;;;;;6.63;1.50;;;13.10;99.90;;;;;;4962893;28;20137;-83
2023/01/01 09:06:20;;;;;;;9.25;1.67;;;13.10;99.90;;;;;;4963353;28;20415;-83
2023/01/01 09:08:46;;;;;;;6.47;1.13;;;13.10;99.90;;;;;;4979507;28;20113;-83
2023/01/01 09:11:30;;;;;;;7.07;1.25;;;13.10;99.90;;;;;;4978901;28;20037;-82
2023/01/01 09:13:55;;;;;;;8.18;1.50;;;13.10;99.90;;;;;;4963001;28;20054;-82
2023/01/01 09:16:22;;;;;;;9.45;1.80;;;13.10;99.90;;;;;;4963797;28;20491;-84
2023/01/01 09:18:47;;;;;;;7.63;1.70;;;13.10;99.90;;;;;;4996773;28;20042;-82
2023/01/01 09:21:13;;;;;;;5.07;1.33;;;13.10;99.90;;;;;;4964158;28;20471;-83
2023/01/01 09:23:39;;;;;;;8.68;2.53;;;13.00;99.90;;;;;;4964230;28;20038;-84
2023/01/01 09:26:09;;;;;;;7.55;1.40;;;13.00;99.90;;;;;;4964322;28;20044;-83
2023/01/01 09:28:36;;;;;;;9.48;1.70;;;13.10;99.90;;;;;;4979560;28;20113;-83
2023/01/01 09:31:05;;;;;;;7.95;1.40;;;13.10;99.90;;;;;;4997759;28;20439;-83
2023/01/01 09:33:31;;;;;;;6.07;1.23;;;13.00;99.90;;;;;;4965917;28;20061;-83
2023/01/01 09:36:12;;;;;;;5.65;1.42;;;13.00;99.90;;;;;;4968442;28;20034;-85
2023/01/01 09:38:37;;;;;;;10.30;1.70;;;13.10;99.90;;;;;;4996151;28;20021;-89
2023/01/01 09:41:22;;;;;;;10.32;1.80;;;13.10;99.90;;;;;;4985371;28;20034;-83
2023/01/01 09:44:02;;;;;;;8.55;1.40;;;13.10;99.90;;;;;;5012173;28;20095;-85
2023/01/01 09:46:35;;;;;;;11.25;2.00;;;13.10;99.90;;;;;;4986975;28;20494;-85
2023/01/01 09:49:13;;;;;;;8.27;1.60;;;13.00;99.90;;;;;;4985419;28;20026;-84
2023/01/01 09:51:41;;;;;;;8.90;1.60;;;13.10;99.90;;;;;;4996576;28;20031;-85
2023/01/01 09:54:14;;;;;;;7.07;1.48;;;13.10;99.90;;;;;;4993477;28;20025;-83
2023/01/01 09:56:43;;;;;;;9.18;1.75;;;13.10;99.90;;;;;;5001450;28;20030;-83
2023/01/01 09:59:10;;;;;;;10.45;2.25;;;13.00;99.90;;;;;;4978365;28;20133;-82
2023/01/01 10:01:48;;;;;;;5.78;1.35;;;13.10;99.90;;;;;;4978614;28;20033;-82
2023/01/01 10:04:40;;;;;;;8.30;1.70;;;13.10;99.90;;;;;;4977999;28;20040;-83
2023/01/01 10:07:33;;;;;;;9.48;1.73;;;13.10;99.90;;;;;;4977571;28;20038;-83
2023/01/01 10:10:02;;;;;;;11.45;1.80;;;13.10;99.90;;;;;;4995011;28;20030;-81
2023/01/01 10:12:55;;;;;;;9.43;1.58;;;13.10;99.90;;;;;;4977557;28;20126;-82
2023/01/01 10:15:30;;;;;;;8.07;2.33;;;13.10;99.90;;;;;;4977565;28;20022;-83
2023/01/01 10:18:04;;;;;;;12.48;1.92;;;13.10;99.90;;;;;;4985973;28;20568;-82
2023/01/01 10:21:08;;;;;;;8.52;1.80;;;13.00;99.90;;;;;;4993847;28;20026;-83
2023/01/01 10:23:42;;;;;;;9.50;1.88;;;13.00;99.90;;;;;;4994782;28;20026;-83
2023/01/01 10:26:13;;;;;;;7.85;1.67;;;13.00;99.90;;;;;;4993661;28;20521;-83
2023/01/01 10:29:08;;;;;;;4.65;1.50;;;13.00;99.90;;;;;;4994558;28;20429;-82
2023/01/01 10:31:40;;;;;;;9.45;1.85;;;13.00;99.90;;;;;;4993752;28;20053;-83
2023/01/01 10:34:27;;;;;;;8.25;1.50;;;12.90;99.90;;;;;;4993131;28;20022;-82
2023/01/01 10:36:58;;;;;;;9.95;2.10;;;12.80;99.90;;;;;;4993263;28;20036;-83
2023/01/01 10:39:25;;;;;;;6.18;1.60;;;12.80;99.90;;;;;;4993412;28;20026;-82
2023/01/01 10:41:51;;;;;;;7.60;1.60;;;12.70;99.90;;;;;;4993692;28;20096;-83
2023/01/01 10:44:32;;;;;;;7.30;1.73;;;12.70;99.90;;;;;;4993831;28;20030;-85
2023/01/01 10:47:03;;;;;;;10.82;1.73;;;12.70;99.90;;;;;;4993267;28;20077;-83
2023/01/01 10:49:28;;;;;;;12.85;1.83;;;12.60;99.90;;;;;;4993541;28;20429;-84
2023/01/01 10:51:54;;;;;;;6.80;1.58;;;12.60;99.90;;;;;;4993625;28;20050;-84
2023/01/01 10:54:38;;;;;;;5.53;1.52;;;12.60;99.90;;;;;;4993766;28;20505;-83
2023/01/01 10:57:24;;;;;;;8.57;1.40;;;12.50;99.90;;;;;;4993318;28;20026;-83
2023/01/01 10:59:50;;;;;;;7.35;1.50;;;12.50;99.90;;;;;;4993311;28;20033;-83
2023/01/01 11:02:24;;;;;;;7.03;1.65;;;12.50;99.90;;;;;;4993882;28;20026;-83
2023/01/01 11:04:52;;;;;;;10.55;2.33;;;12.50;99.90;;;;;;4993901;28;20027;-89
2023/01/01 11:07:18;;;;;;;8.63;1.42;;;12.50;99.90;;;;;;4993410;28;20042;-85
2023/01/01 11:09:47;;;;;;;7.47;1.58;;;12.40;99.90;;;;;;4996448;28;20101;-82
2023/01/01 11:12:20;;;;;;;6.35;1.40;;;12.40;99.90;;;;;;4995802;28;20029;-83
2023/01/01 11:14:52;;;;;;;9.35;1.60;;;12.50;99.90;;;;;;5011758;28;20029;-85
2023/01/01 11:17:28;;;;;;;9.27;1.90;;;12.50;99.90;;;;;;5011430;28;20050;-83
2023/01/01 11:19:56;;;;;;;7.60;1.90;;;12.50;99.90;;;;;;5013187;28;20105;-81
2023/01/01 11:22:51;;;;;;;6.38;1.55;;;12.50;99.90;;;;;;5012042;28;20402;-82
2023/01/01 11:25:21;;;;;;;9.13;2.45;;;12.60;99.90;;;;;;5011920;28;20022;-81
2023/01/01 11:27:48;;;;;;;8.88;2.05;;;12.60;99.90;;;;;;5013198;28;20033;-82
2023/01/01 11:30:27;;;;;;;9.70;2.83;;;12.60;99.90;;;;;;4996156;28;20030;-82
2023/01/01 11:33:01;;;;;;;9.52;2.42;;;12.60;99.90;;;;;;5013479;28;20026;-83
2023/01/01 11:35:31;;;;;;;7.88;1.95;;;12.60;99.90;;;;;;5013336;28;20026;-81
2023/01/01 11:37:58;;;;;;;11.77;3.00;;;12.60;99.90;;;;;;5015874;28;20064;-82
2023/01/01 11:40:49;;;;;;;11.27;2.60;;;12.70;99.90;;;;;;5016285;28;20069;-82
2023/01/01 11:43:18;;;;;;;;;;;12.70;99.90;;;;;;5028093;28;20030;-83
2023/01/01 11:45:43;;;;;;;11.55;2.70;;;12.70;99.90;;;;;;5015982;28;19941;-82
2023/01/01 11:48:29;;;;;;;8.55;2.85;;;12.70;99.90;;;;;;5015650;28;20065;-82
2023/01/01 11:51:07;;;;;;;13.50;3.60;;;12.70;99.90;;;;;;5016942;28;20026;-82
2023/01/01 11:53:42;;;;;;;13.25;3.83;;;12.70;99.90;;;;;;5016467;28;20026;-81
2023/01/01 11:56:07;;;;;;;13.15;3.67;;;12.70;99.90;;;;;;5018260;28;20034;-82
2023/01/01 11:58:55;;;;;;;13.07;2.90;;;12.80;99.90;;;;;;5024756;28;20424;-81
2023/01/01 12:01:39;;;;;;;11.30;3.17;;;12.80;99.90;;;;;;5021430;28;20064;-81
2023/01/01 12:04:13;;;;;;;13.23;3.40;;;12.80;99.90;;;;;;5017728;28;20030;-81
2023/01/01 12:07:00;;;;;;;11.43;3.63;;;12.80;99.90;;;;;;5015669;28;20072;-82
2023/01/01 12:09:36;;;;;;;12.15;2.92;;;12.80;99.90;;;;;;5016933;28;20105;-82
2023/01/01 12:12:06;;;;;;;10.63;2.95;;;12.90;99.90;;;;;;5015375;28;20018;-82
2023/01/01 12:14:52;;;;;;;8.67;2.57;;;12.90;99.90;;;;;;5015349;28;20374;-82
2023/01/01 12:17:26;;;;;;;11.70;3.60;;;13.00;99.90;;;;;;5017704;28;20073;-81
2023/01/01 12:20:29;;;;;;;12.48;3.40;;;13.00;99.90;;;;;;5017354;28;20022;-89
2023/01/01 12:22:57;;;;;;;11.32;4.05;;;13.00;99.90;;;;;;5033985;28;20038;-82
2023/01/01 12:25:27;;;;;;;16.90;3.58;;;13.10;99.90;;;;;;5022872;28;20080;-81
2023/01/01 12:28:23;;;;;;;10.43;3.10;;;13.10;99.90;;;;;;5015132;28;20118;-81
2023/01/01 12:31:21;;;;;;;9.38;3.13;;;13.10;99.90;;;;;;5015158;28;20062;-82
2023/01/01 12:34:11;;;;;;;12.93;3.65;;;13.20;99.90;;;;;;5000336;28;20034;-82
2023/01/01 12:37:00;;;;;;;12.13;3.00;;;13.10;99.90;;;;;;5015210;28;20052;-82
2023/01/01 12:39:55;;;;;;;13.93;3.25;;;13.20;99.90;;;;;;5015203;28;20480;-81
2023/01/01 12:42:30;;;;;;;7.90;3.30;;;13.20;99.90;;;;;;5014728;28;20033;-82
2023/01/01 12:45:05;;;;;;;8.95;3.20;;;13.40;99.90;;;;;;5015409;28;20026;-82
2023/01/01 12:47:49;;;;;;;12.05;2.78;;;13.40;99.90;;;;;;5015063;28;20038;-83
2023/01/01 12:50:36;;;;;;;18.48;3.65;;;13.50;99.90;;;;;;5014763;28;20026;-83
2023/01/01 12:53:40;;;;;;;13.30;3.30;;;13.60;99.90;;;;;;5014743;28;20021;-83
2023/01/01 12:56:18;;;;;;;10.25;2.90;;;13.70;99.90;;;;;;5014659;28;20021;-83
2023/01/01 12:59:02;;;;;;;11.38;3.25;;;13.70;99.90;;;;;;5014690;28;20029;-83
2023/01/01 13:01:31;;;;;;;10.90;2.67;;;13.80;99.90;;;;;;5014745;28;20542;-83
2023/01/01 13:04:29;;;;;;;16.27;3.28;;;13.80;99.90;;;;;;5015468;28;20041;-83
2023/01/01 13:07:02;;;;;;;10.43;3.03;;;13.80;99.90;;;;;;4992387;28;20505;-83
2023/01/01 13:09:34;;;;;;;11.68;3.10;;;13.90;99.90;;;;;;5014543;28;20025;-82